Pasadena, TX (77504)

1:28 PM CDT on August 25, 2016 (GMT -0500)
Parkview South | | Change Station

Elev 36 ft 29.65 °N, 95.19 °W | Updated 3 minutes ago

Mostly Cloudy
Mostly Cloudy
92.1 °F
Feels Like 114 °F
N
5.4
Wind Variable Wind from SE
Gusts 6.0 mph

Today
High -- | Low -- °F
--% Chance of Precip.
Yesterday
High -- | Low -- °F
Precip. -- in
Pressure 30.10 in
Visibility 10.0 miles
Clouds Scattered Clouds 3000 ft
Mostly Cloudy 4000 ft
Mostly Cloudy 25000 ft
Heat Index 114 °F
Dew Point 82 °F
Humidity 72%
Rainfall 0.00 in
Snow Depth Not available.
6:54 AM 7:50 PM
Last Quarter, 43% visible
METAR KEFD 251750Z 10007KT 10SM VCSH SCT030 BKN040 BKN250 32/24 A3010 RMK RA S-SW MOV N
Pressure 30.10 in
Visibility 10.0 miles
Clouds Scattered Clouds 3000 ft
Mostly Cloudy 4000 ft
Mostly Cloudy 25000 ft
Heat Index 114 °F
Dew Point 82 °F
Humidity 72%
Rainfall 0.00 in
Snow Depth Not available.
6:54 AM 7:50 PM
Last Quarter, 43% visible
METAR KEFD 251750Z 10007KT 10SM VCSH SCT030 BKN040 BKN250 32/24 A3010 RMK RA S-SW MOV N
A tropical disturbance pushing toward the Bahamas, is expected to develop into a tropical depression or storm, and will likely target Florida and the Gulf Coast this weekend into next week.

Right now, the disturbance remains a broad area of low pressure pushing through the Dominican Republic and Haiti, headed toward the southeast Bahamas. Rainfall totals over 3 inches (with locally higher amounts) are expected in HispaƱiola, particularly over elevated terrain.

10-Day Weather Forecast

Almanac

Astronomy

Aug. 25, 2016 Rise Set
Actual Time
Civil Twilight
Nautical Twilight
Astronomical Twilight
Moon
Length of Visible Light
Length of Day
Tomorrow will be .
, % of the Moon is Illuminated

Today's Extremes

State Highs State Lows

Community

WunderPhotos

Upload Photos

1,934,890 photos uploaded!

WunderBlog® & News

Nearby

Air Quality

  Air Quality AQ Index Pollutant
Not available.

Snow Depth

Station Depth Elevation

Earthquake Activity

City Distance Mag. Time & Date
Minimum magnitude displayed is 2.5.

Coastal Water Temperatures

Place Temperature

Stations

Nearby Weather Stations

Station Location Temp. Windchill Dew Point Humidity Wind Precip. Elev Updated Type
                   

Watches & Warnings

There are currently no watches in effect.